sensor_id;sensor_type;location;lat;lon;timestamp;P1;durP1;ratioP1;P2;durP2;ratioP2
84288;SDS011;75147;50.294;18.660;2024-02-14T00:02:22;49.83;;;20.95;;
84288;SDS011;75147;50.294;18.660;2024-02-14T00:04:47;48.90;;;19.83;;
84288;SDS011;75147;50.294;18.660;2024-02-14T00:07:13;44.63;;;20.33;;
84288;SDS011;75147;50.294;18.660;2024-02-14T00:09:39;42.63;;;20.23;;
84288;SDS011;75147;50.294;18.660;2024-02-14T00:12:05;46.30;;;21.30;;
84288;SDS011;75147;50.294;18.660;2024-02-14T00:14:31;49.40;;;22.27;;
84288;SDS011;75147;50.294;18.660;2024-02-14T00:16:56;47.83;;;20.08;;
84288;SDS011;75147;50.294;18.660;2024-02-14T00:19:24;46.78;;;21.13;;
84288;SDS011;75147;50.294;18.660;2024-02-14T00:21:49;47.25;;;21.15;;
84288;SDS011;75147;50.294;18.660;2024-02-14T00:24:15;42.95;;;19.88;;
84288;SDS011;75147;50.294;18.660;2024-02-14T00:26:41;48.33;;;20.70;;
84288;SDS011;75147;50.294;18.660;2024-02-14T00:29:06;46.65;;;19.60;;
84288;SDS011;75147;50.294;18.660;2024-02-14T00:31:32;57.65;;;21.77;;
84288;SDS011;75147;50.294;18.660;2024-02-14T00:33:58;49.35;;;20.90;;
84288;SDS011;75147;50.294;18.660;2024-02-14T00:36:23;46.30;;;20.50;;
84288;SDS011;75147;50.294;18.660;2024-02-14T00:38:49;47.42;;;20.83;;
84288;SDS011;75147;50.294;18.660;2024-02-14T00:41:14;48.95;;;21.73;;
84288;SDS011;75147;50.294;18.660;2024-02-14T00:43:40;51.95;;;20.90;;
84288;SDS011;75147;50.294;18.660;2024-02-14T00:46:05;54.03;;;21.17;;
84288;SDS011;75147;50.294;18.660;2024-02-14T00:48:31;57.67;;;21.88;;
84288;SDS011;75147;50.294;18.660;2024-02-14T00:50:57;58.63;;;21.33;;
84288;SDS011;75147;50.294;18.660;2024-02-14T00:53:24;52.25;;;20.58;;
84288;SDS011;75147;50.294;18.660;2024-02-14T00:55:49;52.65;;;22.83;;
84288;SDS011;75147;50.294;18.660;2024-02-14T00:58:14;57.70;;;24.67;;
84288;SDS011;75147;50.294;18.660;2024-02-14T01:00:40;57.30;;;22.83;;
84288;SDS011;75147;50.294;18.660;2024-02-14T01:03:06;60.45;;;25.13;;
84288;SDS011;75147;50.294;18.660;2024-02-14T01:05:32;60.95;;;24.85;;
84288;SDS011;75147;50.294;18.660;2024-02-14T01:07:57;72.18;;;26.75;;
84288;SDS011;75147;50.294;18.660;2024-02-14T01:10:23;62.38;;;26.90;;
84288;SDS011;75147;50.294;18.660;2024-02-14T01:12:48;66.57;;;28.05;;
84288;SDS011;75147;50.294;18.660;2024-02-14T01:15:14;58.40;;;26.90;;
84288;SDS011;75147;50.294;18.660;2024-02-14T01:17:39;61.15;;;26.80;;
84288;SDS011;75147;50.294;18.660;2024-02-14T01:20:05;65.97;;;27.60;;
84288;SDS011;75147;50.294;18.660;2024-02-14T01:22:33;69.25;;;26.60;;
84288;SDS011;75147;50.294;18.660;2024-02-14T01:24:59;65.93;;;28.48;;
84288;SDS011;75147;50.294;18.660;2024-02-14T01:27:24;64.65;;;26.73;;
84288;SDS011;75147;50.294;18.660;2024-02-14T01:29:50;61.08;;;26.92;;
84288;SDS011;75147;50.294;18.660;2024-02-14T01:32:15;65.93;;;28.02;;
84288;SDS011;75147;50.294;18.660;2024-02-14T01:34:40;65.75;;;29.27;;
84288;SDS011;75147;50.294;18.660;2024-02-14T01:37:09;63.38;;;29.48;;
84288;SDS011;75147;50.294;18.660;2024-02-14T01:39:37;64.63;;;28.35;;
84288;SDS011;75147;50.294;18.660;2024-02-14T01:42:02;67.72;;;29.70;;
84288;SDS011;75147;50.294;18.660;2024-02-14T01:44:32;72.72;;;29.77;;
84288;SDS011;75147;50.294;18.660;2024-02-14T01:46:58;76.22;;;32.33;;
84288;SDS011;75147;50.294;18.660;2024-02-14T01:49:24;66.60;;;28.38;;
84288;SDS011;75147;50.294;18.660;2024-02-14T01:51:53;67.63;;;30.02;;
84288;SDS011;75147;50.294;18.660;2024-02-14T01:54:23;68.22;;;30.65;;
84288;SDS011;75147;50.294;18.660;2024-02-14T01:56:49;65.82;;;28.08;;
84288;SDS011;75147;50.294;18.660;2024-02-14T01:59:15;69.82;;;29.98;;
84288;SDS011;75147;50.294;18.660;2024-02-14T02:01:43;68.90;;;29.10;;
84288;SDS011;75147;50.294;18.660;2024-02-14T02:04:09;71.75;;;29.55;;
84288;SDS011;75147;50.294;18.660;2024-02-14T02:06:34;73.90;;;29.45;;
84288;SDS011;75147;50.294;18.660;2024-02-14T02:09:00;69.05;;;29.08;;
84288;SDS011;75147;50.294;18.660;2024-02-14T02:11:26;79.72;;;31.48;;
84288;SDS011;75147;50.294;18.660;2024-02-14T02:13:51;72.47;;;32.78;;
84288;SDS011;75147;50.294;18.660;2024-02-14T02:16:17;77.72;;;33.30;;
84288;SDS011;75147;50.294;18.660;2024-02-14T02:18:44;74.05;;;33.08;;
84288;SDS011;75147;50.294;18.660;2024-02-14T02:21:10;73.10;;;34.83;;
84288;SDS011;75147;50.294;18.660;2024-02-14T02:23:38;73.82;;;33.25;;
84288;SDS011;75147;50.294;18.660;2024-02-14T02:26:05;76.10;;;35.80;;
84288;SDS011;75147;50.294;18.660;2024-02-14T02:28:31;84.72;;;33.90;;
84288;SDS011;75147;50.294;18.660;2024-02-14T02:30:57;81.28;;;35.72;;
84288;SDS011;75147;50.294;18.660;2024-02-14T02:33:22;92.68;;;34.63;;
84288;SDS011;75147;50.294;18.660;2024-02-14T02:35:48;76.68;;;32.92;;
84288;SDS011;75147;50.294;18.660;2024-02-14T02:38:15;84.78;;;36.15;;
84288;SDS011;75147;50.294;18.660;2024-02-14T02:40:44;85.47;;;36.28;;
84288;SDS011;75147;50.294;18.660;2024-02-14T02:43:10;89.30;;;38.03;;
84288;SDS011;75147;50.294;18.660;2024-02-14T02:45:35;93.57;;;37.83;;
84288;SDS011;75147;50.294;18.660;2024-02-14T02:48:01;82.53;;;36.83;;
84288;SDS011;75147;50.294;18.660;2024-02-14T02:50:27;82.07;;;37.92;;
84288;SDS011;75147;50.294;18.660;2024-02-14T02:52:54;88.78;;;38.22;;
84288;SDS011;75147;50.294;18.660;2024-02-14T02:55:19;82.18;;;34.78;;
84288;SDS011;75147;50.294;18.660;2024-02-14T02:57:45;84.75;;;35.67;;
84288;SDS011;75147;50.294;18.660;2024-02-14T03:00:11;86.10;;;35.38;;
84288;SDS011;75147;50.294;18.660;2024-02-14T03:02:38;82.18;;;35.45;;
84288;SDS011;75147;50.294;18.660;2024-02-14T03:05:09;88.60;;;38.33;;
84288;SDS011;75147;50.294;18.660;2024-02-14T03:07:48;89.10;;;35.83;;
84288;SDS011;75147;50.294;18.660;2024-02-14T03:10:15;73.28;;;32.88;;
84288;SDS011;75147;50.294;18.660;2024-02-14T03:12:44;94.25;;;38.97;;
84288;SDS011;75147;50.294;18.660;2024-02-14T03:15:12;84.28;;;37.20;;
84288;SDS011;75147;50.294;18.660;2024-02-14T03:17:38;87.57;;;36.47;;
84288;SDS011;75147;50.294;18.660;2024-02-14T03:20:04;93.15;;;37.45;;
84288;SDS011;75147;50.294;18.660;2024-02-14T03:22:39;96.05;;;39.33;;
84288;SDS011;75147;50.294;18.660;2024-02-14T03:25:12;90.57;;;36.90;;
84288;SDS011;75147;50.294;18.660;2024-02-14T03:27:39;89.35;;;37.65;;
84288;SDS011;75147;50.294;18.660;2024-02-14T03:30:05;88.63;;;38.25;;
84288;SDS011;75147;50.294;18.660;2024-02-14T03:32:31;80.90;;;36.67;;
84288;SDS011;75147;50.294;18.660;2024-02-14T03:34:57;99.82;;;40.78;;
84288;SDS011;75147;50.294;18.660;2024-02-14T03:37:23;87.53;;;38.33;;
84288;SDS011;75147;50.294;18.660;2024-02-14T03:39:49;86.43;;;37.75;;
84288;SDS011;75147;50.294;18.660;2024-02-14T03:42:14;99.45;;;38.22;;
84288;SDS011;75147;50.294;18.660;2024-02-14T03:44:40;91.35;;;40.08;;
84288;SDS011;75147;50.294;18.660;2024-02-14T03:47:06;84.28;;;36.63;;
84288;SDS011;75147;50.294;18.660;2024-02-14T03:49:31;84.97;;;38.47;;
84288;SDS011;75147;50.294;18.660;2024-02-14T03:51:56;87.18;;;36.22;;
84288;SDS011;75147;50.294;18.660;2024-02-14T03:54:22;87.20;;;37.10;;
84288;SDS011;75147;50.294;18.660;2024-02-14T03:56:48;92.60;;;39.05;;
84288;SDS011;75147;50.294;18.660;2024-02-14T03:59:14;83.68;;;36.08;;
84288;SDS011;75147;50.294;18.660;2024-02-14T04:01:49;79.25;;;35.20;;
84288;SDS011;75147;50.294;18.660;2024-02-14T04:04:15;93.20;;;35.83;;
84288;SDS011;75147;50.294;18.660;2024-02-14T04:06:41;80.95;;;34.92;;
84288;SDS011;75147;50.294;18.660;2024-02-14T04:09:07;75.93;;;32.72;;
84288;SDS011;75147;50.294;18.660;2024-02-14T04:11:33;78.88;;;35.25;;
84288;SDS011;75147;50.294;18.660;2024-02-14T04:13:58;91.38;;;37.75;;
84288;SDS011;75147;50.294;18.660;2024-02-14T04:16:23;87.88;;;35.13;;
84288;SDS011;75147;50.294;18.660;2024-02-14T04:18:49;84.50;;;37.47;;
84288;SDS011;75147;50.294;18.660;2024-02-14T04:21:14;81.70;;;36.40;;
84288;SDS011;75147;50.294;18.660;2024-02-14T04:23:40;81.60;;;37.95;;
84288;SDS011;75147;50.294;18.660;2024-02-14T04:26:06;96.72;;;40.38;;
84288;SDS011;75147;50.294;18.660;2024-02-14T04:28:31;90.90;;;40.70;;
84288;SDS011;75147;50.294;18.660;2024-02-14T04:30:57;101.60;;;41.58;;
84288;SDS011;75147;50.294;18.660;2024-02-14T04:33:22;98.75;;;43.08;;
84288;SDS011;75147;50.294;18.660;2024-02-14T04:35:48;87.15;;;40.05;;
84288;SDS011;75147;50.294;18.660;2024-02-14T04:38:13;93.65;;;41.30;;
84288;SDS011;75147;50.294;18.660;2024-02-14T04:40:39;102.30;;;44.40;;
84288;SDS011;75147;50.294;18.660;2024-02-14T04:43:04;88.53;;;41.30;;
84288;SDS011;75147;50.294;18.660;2024-02-14T04:45:30;91.38;;;39.72;;
84288;SDS011;75147;50.294;18.660;2024-02-14T04:47:55;91.35;;;43.47;;
84288;SDS011;75147;50.294;18.660;2024-02-14T04:50:21;82.53;;;40.70;;
84288;SDS011;75147;50.294;18.660;2024-02-14T04:52:46;90.13;;;42.67;;
84288;SDS011;75147;50.294;18.660;2024-02-14T04:55:12;88.50;;;42.85;;
84288;SDS011;75147;50.294;18.660;2024-02-14T04:57:37;89.95;;;41.22;;
84288;SDS011;75147;50.294;18.660;2024-02-14T05:00:04;85.85;;;40.60;;
84288;SDS011;75147;50.294;18.660;2024-02-14T05:02:31;82.63;;;36.10;;
84288;SDS011;75147;50.294;18.660;2024-02-14T05:04:56;93.72;;;43.72;;
84288;SDS011;75147;50.294;18.660;2024-02-14T05:07:21;85.45;;;39.30;;
84288;SDS011;75147;50.294;18.660;2024-02-14T05:09:47;90.82;;;41.15;;
84288;SDS011;75147;50.294;18.660;2024-02-14T05:12:15;95.50;;;41.33;;
84288;SDS011;75147;50.294;18.660;2024-02-14T05:14:40;84.30;;;41.45;;
84288;SDS011;75147;50.294;18.660;2024-02-14T05:17:07;95.38;;;37.83;;
84288;SDS011;75147;50.294;18.660;2024-02-14T05:19:33;93.75;;;38.55;;
84288;SDS011;75147;50.294;18.660;2024-02-14T05:21:58;91.80;;;40.75;;
84288;SDS011;75147;50.294;18.660;2024-02-14T05:24:24;89.88;;;38.97;;
84288;SDS011;75147;50.294;18.660;2024-02-14T05:26:52;96.05;;;39.30;;
84288;SDS011;75147;50.294;18.660;2024-02-14T05:29:18;100.88;;;39.70;;
84288;SDS011;75147;50.294;18.660;2024-02-14T05:31:46;96.00;;;39.75;;
84288;SDS011;75147;50.294;18.660;2024-02-14T05:34:13;97.68;;;40.15;;
84288;SDS011;75147;50.294;18.660;2024-02-14T05:36:39;91.68;;;42.78;;
84288;SDS011;75147;50.294;18.660;2024-02-14T05:39:05;94.85;;;38.60;;
84288;SDS011;75147;50.294;18.660;2024-02-14T05:41:33;95.32;;;37.90;;
84288;SDS011;75147;50.294;18.660;2024-02-14T05:43:59;85.88;;;37.85;;
84288;SDS011;75147;50.294;18.660;2024-02-14T05:46:25;87.82;;;36.85;;
84288;SDS011;75147;50.294;18.660;2024-02-14T05:48:51;89.78;;;37.35;;
84288;SDS011;75147;50.294;18.660;2024-02-14T05:51:17;87.13;;;37.20;;
84288;SDS011;75147;50.294;18.660;2024-02-14T05:53:43;92.63;;;40.92;;
84288;SDS011;75147;50.294;18.660;2024-02-14T05:56:09;94.82;;;41.28;;
84288;SDS011;75147;50.294;18.660;2024-02-14T05:58:34;96.22;;;40.13;;
84288;SDS011;75147;50.294;18.660;2024-02-14T06:01:00;85.57;;;35.72;;
84288;SDS011;75147;50.294;18.660;2024-02-14T06:03:26;95.18;;;38.72;;
84288;SDS011;75147;50.294;18.660;2024-02-14T06:05:51;86.97;;;38.45;;
84288;SDS011;75147;50.294;18.660;2024-02-14T06:08:17;91.88;;;40.80;;
84288;SDS011;75147;50.294;18.660;2024-02-14T06:10:42;91.57;;;37.25;;
84288;SDS011;75147;50.294;18.660;2024-02-14T06:13:07;91.85;;;38.60;;
84288;SDS011;75147;50.294;18.660;2024-02-14T06:15:33;92.60;;;40.78;;
84288;SDS011;75147;50.294;18.660;2024-02-14T06:17:58;93.68;;;43.80;;
84288;SDS011;75147;50.294;18.660;2024-02-14T06:20:24;89.93;;;37.65;;
84288;SDS011;75147;50.294;18.660;2024-02-14T06:22:49;105.65;;;42.33;;
84288;SDS011;75147;50.294;18.660;2024-02-14T06:25:14;88.50;;;39.53;;
84288;SDS011;75147;50.294;18.660;2024-02-14T06:27:42;98.50;;;44.33;;
84288;SDS011;75147;50.294;18.660;2024-02-14T06:30:08;99.05;;;40.78;;
84288;SDS011;75147;50.294;18.660;2024-02-14T06:32:34;92.88;;;41.05;;
84288;SDS011;75147;50.294;18.660;2024-02-14T06:35:00;102.75;;;47.47;;
84288;SDS011;75147;50.294;18.660;2024-02-14T06:37:25;88.15;;;40.50;;
84288;SDS011;75147;50.294;18.660;2024-02-14T06:39:51;92.07;;;40.97;;
84288;SDS011;75147;50.294;18.660;2024-02-14T06:42:16;103.32;;;43.13;;
84288;SDS011;75147;50.294;18.660;2024-02-14T06:44:42;85.53;;;41.45;;
84288;SDS011;75147;50.294;18.660;2024-02-14T06:47:07;90.43;;;41.00;;
84288;SDS011;75147;50.294;18.660;2024-02-14T06:49:33;99.88;;;41.38;;
84288;SDS011;75147;50.294;18.660;2024-02-14T06:51:58;96.05;;;41.92;;
84288;SDS011;75147;50.294;18.660;2024-02-14T06:54:23;97.78;;;38.85;;
84288;SDS011;75147;50.294;18.660;2024-02-14T06:56:49;99.95;;;41.90;;
84288;SDS011;75147;50.294;18.660;2024-02-14T06:59:14;101.28;;;42.97;;
84288;SDS011;75147;50.294;18.660;2024-02-14T07:01:40;104.90;;;43.00;;
84288;SDS011;75147;50.294;18.660;2024-02-14T07:04:05;98.38;;;44.13;;
84288;SDS011;75147;50.294;18.660;2024-02-14T07:06:31;91.60;;;42.55;;
84288;SDS011;75147;50.294;18.660;2024-02-14T07:08:56;92.05;;;39.72;;
84288;SDS011;75147;50.294;18.660;2024-02-14T07:11:22;90.15;;;38.38;;
84288;SDS011;75147;50.294;18.660;2024-02-14T07:13:47;90.88;;;39.08;;
84288;SDS011;75147;50.294;18.660;2024-02-14T07:16:12;76.93;;;36.80;;
84288;SDS011;75147;50.294;18.660;2024-02-14T07:18:38;79.63;;;36.58;;
84288;SDS011;75147;50.294;18.660;2024-02-14T07:21:03;73.43;;;36.38;;
84288;SDS011;75147;50.294;18.660;2024-02-14T07:23:30;72.90;;;34.83;;
84288;SDS011;75147;50.294;18.660;2024-02-14T07:25:56;70.88;;;32.97;;
84288;SDS011;75147;50.294;18.660;2024-02-14T07:28:21;68.22;;;33.63;;
84288;SDS011;75147;50.294;18.660;2024-02-14T07:30:47;74.00;;;33.75;;
84288;SDS011;75147;50.294;18.660;2024-02-14T07:33:12;65.28;;;30.10;;
84288;SDS011;75147;50.294;18.660;2024-02-14T07:35:38;61.03;;;29.58;;
84288;SDS011;75147;50.294;18.660;2024-02-14T07:38:03;54.40;;;27.10;;
84288;SDS011;75147;50.294;18.660;2024-02-14T07:40:29;54.20;;;26.13;;
84288;SDS011;75147;50.294;18.660;2024-02-14T07:42:59;50.47;;;25.25;;
84288;SDS011;75147;50.294;18.660;2024-02-14T07:45:24;53.10;;;27.63;;
84288;SDS011;75147;50.294;18.660;2024-02-14T07:47:50;53.92;;;26.15;;
84288;SDS011;75147;50.294;18.660;2024-02-14T07:50:15;54.03;;;25.88;;
84288;SDS011;75147;50.294;18.660;2024-02-14T07:52:45;58.60;;;26.33;;
84288;SDS011;75147;50.294;18.660;2024-02-14T07:55:11;55.55;;;23.90;;
84288;SDS011;75147;50.294;18.660;2024-02-14T07:57:38;46.67;;;22.33;;
84288;SDS011;75147;50.294;18.660;2024-02-14T08:00:07;48.80;;;23.50;;
84288;SDS011;75147;50.294;18.660;2024-02-14T08:02:33;43.42;;;22.67;;
84288;SDS011;75147;50.294;18.660;2024-02-14T08:05:00;47.72;;;22.20;;
84288;SDS011;75147;50.294;18.660;2024-02-14T08:07:25;44.22;;;22.42;;
84288;SDS011;75147;50.294;18.660;2024-02-14T08:09:51;43.13;;;20.88;;
84288;SDS011;75147;50.294;18.660;2024-02-14T08:12:16;37.80;;;20.42;;
84288;SDS011;75147;50.294;18.660;2024-02-14T08:14:41;41.80;;;19.05;;
84288;SDS011;75147;50.294;18.660;2024-02-14T08:17:07;42.63;;;21.88;;
84288;SDS011;75147;50.294;18.660;2024-02-14T08:19:32;41.55;;;20.10;;
84288;SDS011;75147;50.294;18.660;2024-02-14T08:21:58;50.65;;;21.17;;
84288;SDS011;75147;50.294;18.660;2024-02-14T08:24:28;46.80;;;22.35;;
84288;SDS011;75147;50.294;18.660;2024-02-14T08:26:53;44.80;;;21.05;;
84288;SDS011;75147;50.294;18.660;2024-02-14T08:29:19;49.83;;;21.30;;
84288;SDS011;75147;50.294;18.660;2024-02-14T08:31:46;47.15;;;21.60;;
84288;SDS011;75147;50.294;18.660;2024-02-14T08:34:11;46.13;;;21.30;;
84288;SDS011;75147;50.294;18.660;2024-02-14T08:36:37;44.50;;;22.05;;
84288;SDS011;75147;50.294;18.660;2024-02-14T08:39:09;45.65;;;19.73;;
84288;SDS011;75147;50.294;18.660;2024-02-14T08:41:35;34.33;;;17.55;;
84288;SDS011;75147;50.294;18.660;2024-02-14T08:44:01;35.90;;;17.67;;
84288;SDS011;75147;50.294;18.660;2024-02-14T08:46:26;36.65;;;20.27;;
84288;SDS011;75147;50.294;18.660;2024-02-14T08:48:53;38.08;;;18.88;;
84288;SDS011;75147;50.294;18.660;2024-02-14T08:51:19;38.88;;;19.33;;
84288;SDS011;75147;50.294;18.660;2024-02-14T08:53:45;37.42;;;19.60;;
84288;SDS011;75147;50.294;18.660;2024-02-14T08:56:11;35.20;;;17.63;;
84288;SDS011;75147;50.294;18.660;2024-02-14T08:58:36;39.60;;;19.10;;
84288;SDS011;75147;50.294;18.660;2024-02-14T09:01:01;34.20;;;16.38;;
84288;SDS011;75147;50.294;18.660;2024-02-14T09:03:27;32.17;;;16.20;;
84288;SDS011;75147;50.294;18.660;2024-02-14T09:05:52;32.30;;;15.95;;
84288;SDS011;75147;50.294;18.660;2024-02-14T09:08:19;31.92;;;15.88;;
84288;SDS011;75147;50.294;18.660;2024-02-14T09:10:45;29.98;;;16.30;;
84288;SDS011;75147;50.294;18.660;2024-02-14T09:13:11;24.42;;;13.05;;
84288;SDS011;75147;50.294;18.660;2024-02-14T09:15:37;31.13;;;13.02;;
84288;SDS011;75147;50.294;18.660;2024-02-14T09:18:02;22.88;;;11.30;;
84288;SDS011;75147;50.294;18.660;2024-02-14T09:20:28;25.52;;;12.27;;
84288;SDS011;75147;50.294;18.660;2024-02-14T09:22:55;22.08;;;12.52;;
84288;SDS011;75147;50.294;18.660;2024-02-14T09:25:21;28.65;;;13.57;;
84288;SDS011;75147;50.294;18.660;2024-02-14T09:27:49;22.50;;;11.65;;
84288;SDS011;75147;50.294;18.660;2024-02-14T09:30:14;21.73;;;10.30;;
84288;SDS011;75147;50.294;18.660;2024-02-14T09:32:42;20.48;;;10.55;;
84288;SDS011;75147;50.294;18.660;2024-02-14T09:35:11;23.85;;;11.38;;
84288;SDS011;75147;50.294;18.660;2024-02-14T09:37:39;21.17;;;10.05;;
84288;SDS011;75147;50.294;18.660;2024-02-14T09:40:05;19.17;;;9.15;;
84288;SDS011;75147;50.294;18.660;2024-02-14T09:42:38;12.77;;;8.32;;
84288;SDS011;75147;50.294;18.660;2024-02-14T09:45:18;17.42;;;8.77;;
84288;SDS011;75147;50.294;18.660;2024-02-14T09:47:44;17.83;;;9.32;;
84288;SDS011;75147;50.294;18.660;2024-02-14T09:50:10;14.95;;;8.05;;
84288;SDS011;75147;50.294;18.660;2024-02-14T09:52:37;16.45;;;7.95;;
84288;SDS011;75147;50.294;18.660;2024-02-14T09:55:04;14.68;;;7.63;;
84288;SDS011;75147;50.294;18.660;2024-02-14T09:57:31;15.10;;;7.38;;
84288;SDS011;75147;50.294;18.660;2024-02-14T09:59:58;11.27;;;7.50;;
84288;SDS011;75147;50.294;18.660;2024-02-14T10:02:25;15.02;;;6.90;;
84288;SDS011;75147;50.294;18.660;2024-02-14T10:04:50;15.13;;;7.68;;
84288;SDS011;75147;50.294;18.660;2024-02-14T10:07:16;12.00;;;7.15;;
84288;SDS011;75147;50.294;18.660;2024-02-14T10:09:41;14.35;;;6.95;;
84288;SDS011;75147;50.294;18.660;2024-02-14T10:12:07;13.82;;;6.68;;
84288;SDS011;75147;50.294;18.660;2024-02-14T10:14:36;15.52;;;7.85;;
84288;SDS011;75147;50.294;18.660;2024-02-14T10:17:03;13.68;;;6.95;;
84288;SDS011;75147;50.294;18.660;2024-02-14T10:19:29;12.20;;;7.00;;
84288;SDS011;75147;50.294;18.660;2024-02-14T10:21:59;10.95;;;6.97;;
84288;SDS011;75147;50.294;18.660;2024-02-14T10:24:28;12.68;;;6.50;;
84288;SDS011;75147;50.294;18.660;2024-02-14T10:26:55;12.23;;;6.60;;
84288;SDS011;75147;50.294;18.660;2024-02-14T10:29:22;10.38;;;6.10;;
84288;SDS011;75147;50.294;18.660;2024-02-14T10:31:51;14.85;;;6.15;;
84288;SDS011;75147;50.294;18.660;2024-02-14T10:34:18;9.95;;;5.43;;
84288;SDS011;75147;50.294;18.660;2024-02-14T10:36:45;10.48;;;5.18;;
84288;SDS011;75147;50.294;18.660;2024-02-14T10:39:11;10.68;;;5.80;;
84288;SDS011;75147;50.294;18.660;2024-02-14T10:41:36;9.82;;;6.32;;
84288;SDS011;75147;50.294;18.660;2024-02-14T10:44:05;9.93;;;5.57;;
84288;SDS011;75147;50.294;18.660;2024-02-14T10:46:35;9.10;;;5.30;;
84288;SDS011;75147;50.294;18.660;2024-02-14T10:49:03;13.40;;;6.35;;
84288;SDS011;75147;50.294;18.660;2024-02-14T10:51:30;8.60;;;6.00;;
84288;SDS011;75147;50.294;18.660;2024-02-14T10:53:57;12.02;;;6.45;;
84288;SDS011;75147;50.294;18.660;2024-02-14T10:56:24;9.93;;;5.15;;
84288;SDS011;75147;50.294;18.660;2024-02-14T10:58:55;9.43;;;5.30;;
84288;SDS011;75147;50.294;18.660;2024-02-14T11:01:26;8.45;;;5.20;;
84288;SDS011;75147;50.294;18.660;2024-02-14T11:03:56;15.70;;;7.18;;
84288;SDS011;75147;50.294;18.660;2024-02-14T11:06:23;13.85;;;5.50;;
84288;SDS011;75147;50.294;18.660;2024-02-14T11:09:01;10.75;;;5.57;;
84288;SDS011;75147;50.294;18.660;2024-02-14T11:11:38;9.40;;;4.78;;
84288;SDS011;75147;50.294;18.660;2024-02-14T11:14:04;8.95;;;5.25;;
84288;SDS011;75147;50.294;18.660;2024-02-14T11:16:31;7.63;;;4.45;;
84288;SDS011;75147;50.294;18.660;2024-02-14T11:19:07;10.35;;;5.47;;
84288;SDS011;75147;50.294;18.660;2024-02-14T11:21:45;11.63;;;5.35;;
84288;SDS011;75147;50.294;18.660;2024-02-14T11:24:12;7.45;;;4.78;;
84288;SDS011;75147;50.294;18.660;2024-02-14T11:29:17;9.32;;;4.97;;
84288;SDS011;75147;50.294;18.660;2024-02-14T11:31:43;9.07;;;3.90;;
84288;SDS011;75147;50.294;18.660;2024-02-14T11:34:16;8.18;;;4.25;;
84288;SDS011;75147;50.294;18.660;2024-02-14T11:36:42;6.90;;;3.80;;
84288;SDS011;75147;50.294;18.660;2024-02-14T11:39:09;6.60;;;3.63;;
84288;SDS011;75147;50.294;18.660;2024-02-14T11:41:37;8.73;;;4.03;;
84288;SDS011;75147;50.294;18.660;2024-02-14T11:44:03;8.35;;;4.88;;
84288;SDS011;75147;50.294;18.660;2024-02-14T11:46:33;8.13;;;3.78;;
84288;SDS011;75147;50.294;18.660;2024-02-14T11:49:01;8.65;;;4.40;;
84288;SDS011;75147;50.294;18.660;2024-02-14T11:51:28;7.00;;;3.78;;
84288;SDS011;75147;50.294;18.660;2024-02-14T11:53:55;8.70;;;4.35;;
84288;SDS011;75147;50.294;18.660;2024-02-14T11:56:21;8.45;;;4.43;;
84288;SDS011;75147;50.294;18.660;2024-02-14T11:58:48;7.32;;;4.28;;
84288;SDS011;75147;50.294;18.660;2024-02-14T12:01:16;7.57;;;4.28;;
84288;SDS011;75147;50.294;18.660;2024-02-14T12:03:43;7.38;;;4.50;;
84288;SDS011;75147;50.294;18.660;2024-02-14T12:06:09;6.78;;;4.15;;
84288;SDS011;75147;50.294;18.660;2024-02-14T12:08:35;9.35;;;4.57;;
84288;SDS011;75147;50.294;18.660;2024-02-14T12:11:01;9.85;;;4.78;;
84288;SDS011;75147;50.294;18.660;2024-02-14T12:13:27;6.90;;;4.72;;
84288;SDS011;75147;50.294;18.660;2024-02-14T12:15:57;7.53;;;4.80;;
84288;SDS011;75147;50.294;18.660;2024-02-14T12:18:22;6.93;;;4.63;;
84288;SDS011;75147;50.294;18.660;2024-02-14T12:20:48;9.77;;;5.57;;
84288;SDS011;75147;50.294;18.660;2024-02-14T12:23:18;8.82;;;5.35;;
84288;SDS011;75147;50.294;18.660;2024-02-14T12:28:15;9.30;;;4.40;;
84288;SDS011;75147;50.294;18.660;2024-02-14T12:30:49;10.00;;;5.20;;
84288;SDS011;75147;50.294;18.660;2024-02-14T12:33:17;7.22;;;4.22;;
84288;SDS011;75147;50.294;18.660;2024-02-14T12:35:43;10.13;;;6.22;;
84288;SDS011;75147;50.294;18.660;2024-02-14T12:38:10;9.50;;;5.10;;
84288;SDS011;75147;50.294;18.660;2024-02-14T12:40:36;9.55;;;4.57;;
84288;SDS011;75147;50.294;18.660;2024-02-14T12:43:02;7.05;;;4.55;;
84288;SDS011;75147;50.294;18.660;2024-02-14T12:45:27;11.10;;;4.50;;
84288;SDS011;75147;50.294;18.660;2024-02-14T12:47:53;11.23;;;5.25;;
84288;SDS011;75147;50.294;18.660;2024-02-14T12:50:18;7.40;;;4.28;;
84288;SDS011;75147;50.294;18.660;2024-02-14T12:52:47;9.32;;;4.70;;
84288;SDS011;75147;50.294;18.660;2024-02-14T12:55:13;11.23;;;5.18;;
84288;SDS011;75147;50.294;18.660;2024-02-14T12:57:39;8.13;;;4.63;;
84288;SDS011;75147;50.294;18.660;2024-02-14T13:00:05;9.23;;;4.55;;
84288;SDS011;75147;50.294;18.660;2024-02-14T13:02:33;8.23;;;4.47;;
84288;SDS011;75147;50.294;18.660;2024-02-14T13:04:59;11.20;;;5.13;;
84288;SDS011;75147;50.294;18.660;2024-02-14T13:07:26;7.63;;;5.20;;
84288;SDS011;75147;50.294;18.660;2024-02-14T13:09:52;8.60;;;4.72;;
84288;SDS011;75147;50.294;18.660;2024-02-14T13:12:17;9.20;;;5.60;;
84288;SDS011;75147;50.294;18.660;2024-02-14T13:14:43;9.48;;;5.13;;
84288;SDS011;75147;50.294;18.660;2024-02-14T13:17:09;9.65;;;4.80;;
84288;SDS011;75147;50.294;18.660;2024-02-14T13:19:36;6.70;;;4.43;;
84288;SDS011;75147;50.294;18.660;2024-02-14T13:22:01;7.85;;;4.65;;
84288;SDS011;75147;50.294;18.660;2024-02-14T13:24:27;7.47;;;4.40;;
84288;SDS011;75147;50.294;18.660;2024-02-14T13:26:53;9.88;;;4.68;;
84288;SDS011;75147;50.294;18.660;2024-02-14T13:29:19;9.25;;;5.43;;
84288;SDS011;75147;50.294;18.660;2024-02-14T13:31:44;9.77;;;5.10;;
84288;SDS011;75147;50.294;18.660;2024-02-14T13:34:10;9.73;;;4.90;;
84288;SDS011;75147;50.294;18.660;2024-02-14T13:36:36;5.72;;;4.00;;
84288;SDS011;75147;50.294;18.660;2024-02-14T13:39:02;8.68;;;4.55;;
84288;SDS011;75147;50.294;18.660;2024-02-14T13:41:27;8.25;;;3.95;;
84288;SDS011;75147;50.294;18.660;2024-02-14T13:43:53;6.63;;;3.70;;
84288;SDS011;75147;50.294;18.660;2024-02-14T13:46:19;9.20;;;3.95;;
84288;SDS011;75147;50.294;18.660;2024-02-14T13:48:45;8.40;;;3.63;;
84288;SDS011;75147;50.294;18.660;2024-02-14T13:51:10;6.82;;;3.80;;
84288;SDS011;75147;50.294;18.660;2024-02-14T13:53:39;7.85;;;4.22;;
84288;SDS011;75147;50.294;18.660;2024-02-14T13:56:04;9.27;;;4.78;;
84288;SDS011;75147;50.294;18.660;2024-02-14T13:58:30;7.88;;;4.25;;
84288;SDS011;75147;50.294;18.660;2024-02-14T14:00:56;6.60;;;3.78;;
84288;SDS011;75147;50.294;18.660;2024-02-14T14:03:21;7.07;;;4.15;;
84288;SDS011;75147;50.294;18.660;2024-02-14T14:05:46;12.18;;;4.47;;
84288;SDS011;75147;50.294;18.660;2024-02-14T14:08:15;8.90;;;4.53;;
84288;SDS011;75147;50.294;18.660;2024-02-14T14:10:40;6.18;;;3.75;;
84288;SDS011;75147;50.294;18.660;2024-02-14T14:13:08;6.95;;;3.63;;
84288;SDS011;75147;50.294;18.660;2024-02-14T14:15:33;7.75;;;3.78;;
84288;SDS011;75147;50.294;18.660;2024-02-14T14:18:00;8.25;;;3.90;;